createdAt,value
2018-11-11T00:00:44.671Z,11.27
2018-11-11T00:01:47.515Z,11.28
2018-11-11T00:02:51.571Z,11.29
2018-11-11T00:03:54.455Z,11.29
2018-11-11T00:04:57.322Z,11.29
2018-11-11T00:06:00.062Z,11.29
2018-11-11T00:07:02.803Z,11.27
2018-11-11T00:08:05.577Z,11.26
2018-11-11T00:09:09.054Z,11.25
2018-11-11T00:10:11.894Z,11.26
2018-11-11T00:11:14.657Z,11.27
2018-11-11T00:12:17.383Z,11.28
2018-11-11T00:13:20.136Z,11.29
2018-11-11T00:14:22.898Z,11.28
2018-11-11T00:15:25.930Z,11.28
2018-11-11T00:16:28.721Z,11.26
2018-11-11T00:17:33.342Z,11.27
2018-11-11T00:18:36.069Z,11.25
2018-11-11T00:19:40.530Z,11.24
2018-11-11T00:20:43.342Z,11.24
2018-11-11T00:21:46.423Z,11.24
2018-11-11T00:22:49.182Z,11.28
2018-11-11T00:23:53.517Z,11.31
2018-11-11T00:24:56.740Z,11.29
2018-11-11T00:25:59.493Z,11.28
2018-11-11T00:27:02.260Z,11.28
2018-11-11T00:28:05.334Z,11.27
2018-11-11T00:29:08.243Z,11.27
2018-11-11T00:30:11.829Z,11.26
2018-11-11T00:31:14.588Z,11.25
2018-11-11T00:32:18.072Z,11.28
2018-11-11T00:33:20.876Z,11.28
2018-11-11T00:34:23.980Z,11.28
2018-11-11T00:35:27.487Z,11.30
2018-11-11T00:36:32.675Z,11.33
2018-11-11T00:37:35.414Z,11.36
2018-11-11T00:38:38.322Z,11.41
2018-11-11T00:39:41.843Z,11.42
2018-11-11T00:40:44.921Z,11.38
2018-11-11T00:41:47.666Z,11.37
2018-11-11T00:42:50.423Z,11.35
2018-11-11T00:43:53.219Z,11.35
2018-11-11T00:44:56.096Z,11.38
2018-11-11T00:46:01.566Z,11.37
2018-11-11T00:47:04.871Z,11.34
2018-11-11T00:48:08.474Z,11.34
2018-11-11T00:49:11.216Z,11.37
2018-11-11T00:50:14.125Z,11.36
2018-11-11T00:51:16.871Z,11.34
2018-11-11T00:52:19.603Z,11.31
2018-11-11T00:53:23.624Z,11.29
2018-11-11T00:54:27.327Z,11.30
2018-11-11T00:55:35.973Z,11.28
2018-11-11T00:56:38.697Z,11.28
2018-11-11T00:57:42.114Z,11.27
2018-11-11T00:58:45.797Z,11.28
2018-11-11T00:59:48.863Z,11.31
2018-11-11T01:00:51.598Z,11.31
2018-11-11T01:01:54.374Z,11.32
2018-11-11T01:02:57.103Z,11.33
2018-11-11T01:04:01.556Z,11.32
2018-11-11T01:05:04.359Z,11.30
2018-11-11T01:06:08.179Z,11.31
2018-11-11T01:07:11.684Z,11.34
2018-11-11T01:08:14.402Z,11.37
2018-11-11T01:09:17.291Z,11.41
2018-11-11T01:10:20.842Z,11.39
2018-11-11T01:11:24.817Z,11.41
2018-11-11T01:12:27.870Z,11.39
2018-11-11T01:13:30.621Z,11.36
2018-11-11T01:14:33.626Z,11.39
2018-11-11T01:15:37.052Z,11.42
2018-11-11T01:16:40.082Z,11.42
2018-11-11T01:17:45.730Z,11.39
2018-11-11T01:18:49.312Z,11.37
2018-11-11T01:19:52.207Z,11.38
2018-11-11T01:20:55.141Z,11.41
2018-11-11T01:21:58.786Z,11.41
2018-11-11T01:23:01.538Z,11.37
2018-11-11T01:24:04.277Z,11.38
2018-11-11T01:25:07.325Z,11.37
2018-11-11T01:26:10.050Z,11.37
2018-11-11T01:27:13.459Z,11.35
2018-11-11T01:28:16.285Z,11.32
2018-11-11T01:29:19.515Z,11.39
2018-11-11T01:30:22.254Z,11.42
2018-11-11T01:31:25.335Z,11.38
2018-11-11T01:32:28.646Z,11.39
2018-11-11T01:33:31.430Z,11.37
2018-11-11T01:34:34.200Z,11.41
2018-11-11T01:35:37.033Z,11.44
2018-11-11T01:36:40.013Z,11.42
2018-11-11T01:37:43.801Z,11.40
2018-11-11T01:38:46.756Z,11.44
2018-11-11T01:39:50.203Z,11.43
2018-11-11T01:40:53.187Z,11.40
2018-11-11T01:41:55.912Z,11.35
2018-11-11T01:42:58.626Z,11.33
2018-11-11T01:44:02.150Z,11.34
2018-11-11T01:45:05.133Z,11.35
2018-11-11T01:46:07.937Z,11.38
2018-11-11T01:47:10.809Z,11.38
2018-11-11T01:48:13.549Z,11.43
2018-11-11T01:49:16.277Z,11.47
2018-11-11T01:50:20.391Z,11.48
2018-11-11T01:51:23.273Z,11.43
2018-11-11T01:52:26.001Z,11.42
2018-11-11T01:53:29.396Z,11.41
2018-11-11T01:54:32.932Z,11.39
2018-11-11T01:55:36.074Z,11.35
2018-11-11T01:56:41.495Z,11.32
2018-11-11T01:57:44.273Z,11.43
2018-11-11T01:58:47.048Z,11.46
2018-11-11T01:59:50.976Z,11.45
2018-11-11T02:00:54.132Z,11.42
2018-11-11T02:01:57.803Z,11.39
2018-11-11T02:03:00.836Z,11.38
2018-11-11T02:04:04.590Z,11.37
2018-11-11T02:05:10.908Z,11.36
2018-11-11T02:06:14.387Z,11.37
2018-11-11T02:07:17.129Z,11.36
2018-11-11T02:08:21.176Z,11.31
2018-11-11T02:09:24.182Z,11.30
2018-11-11T02:10:27.707Z,11.27
2018-11-11T02:11:30.972Z,11.30
2018-11-11T02:12:33.794Z,11.29
2018-11-11T02:13:36.613Z,11.24
2018-11-11T02:14:40.027Z,11.23
2018-11-11T02:15:43.072Z,11.23
2018-11-11T02:16:45.877Z,11.19
2018-11-11T02:17:48.679Z,11.18
2018-11-11T02:18:52.591Z,11.18
2018-11-11T02:19:55.320Z,11.13
2018-11-11T02:20:58.572Z,11.11
2018-11-11T02:22:01.711Z,11.12
2018-11-11T02:23:04.455Z,11.15
2018-11-11T02:24:07.204Z,11.15
2018-11-11T02:25:10.671Z,11.13
2018-11-11T02:26:13.536Z,11.09
2018-11-11T02:27:16.439Z,11.07
2018-11-11T02:28:19.544Z,11.07
2018-11-11T02:29:22.311Z,11.09
2018-11-11T02:30:25.206Z,11.04
2018-11-11T02:31:28.089Z,11.02
2018-11-11T02:32:30.998Z,11.01
2018-11-11T02:33:33.997Z,11.02
2018-11-11T02:34:37.150Z,11.00
2018-11-11T02:35:40.398Z,11.01
2018-11-11T02:36:43.232Z,10.99
2018-11-11T02:37:46.249Z,10.94
2018-11-11T02:38:48.996Z,10.91
2018-11-11T02:39:51.877Z,10.90
2018-11-11T02:40:54.967Z,10.90
2018-11-11T02:41:57.733Z,10.89
2018-11-11T02:43:00.791Z,10.84
2018-11-11T02:44:03.713Z,10.89
2018-11-11T02:45:06.599Z,10.90
2018-11-11T02:46:11.253Z,10.92
2018-11-11T02:47:17.094Z,10.91
2018-11-11T02:48:19.986Z,10.93
2018-11-11T02:49:23.787Z,10.92
2018-11-11T02:50:29.564Z,10.93
2018-11-11T02:51:32.344Z,10.91
2018-11-11T02:52:35.083Z,10.89
2018-11-11T02:53:38.204Z,10.87
2018-11-11T02:54:41.021Z,10.87
2018-11-11T02:55:43.810Z,10.83
2018-11-11T02:56:46.591Z,10.83
2018-11-11T02:57:49.548Z,10.83
2018-11-11T02:58:52.335Z,10.83
2018-11-11T02:59:55.458Z,10.81
2018-11-11T03:00:58.206Z,10.85
2018-11-11T03:02:01.427Z,10.87
2018-11-11T03:03:04.464Z,10.88
2018-11-11T03:04:07.421Z,10.85
2018-11-11T03:05:11.168Z,10.84
2018-11-11T03:06:14.316Z,10.86
2018-11-11T03:07:17.055Z,10.87
2018-11-11T03:08:20.191Z,10.85
2018-11-11T03:09:23.761Z,10.85
2018-11-11T03:10:26.493Z,10.84
2018-11-11T03:11:29.468Z,10.82
2018-11-11T03:12:32.987Z,10.81
2018-11-11T03:13:35.975Z,10.80
2018-11-11T03:14:38.760Z,10.80
2018-11-11T03:15:41.583Z,10.79
2018-11-11T03:16:44.332Z,10.78
2018-11-11T03:17:48.338Z,10.79
2018-11-11T03:18:51.438Z,10.79
2018-11-11T03:19:54.190Z,10.80
2018-11-11T03:20:56.912Z,10.81
2018-11-11T03:21:59.717Z,10.80
2018-11-11T03:23:02.431Z,10.81
2018-11-11T03:24:05.274Z,10.81
2018-11-11T03:25:08.401Z,10.79
2018-11-11T03:26:11.211Z,10.81
2018-11-11T03:27:13.935Z,10.82
2018-11-11T03:28:16.921Z,10.83
2018-11-11T03:29:20.572Z,10.80
2018-11-11T03:30:23.331Z,10.84
2018-11-11T03:31:26.384Z,10.85
2018-11-11T03:32:29.129Z,10.85
2018-11-11T03:33:31.887Z,10.84
2018-11-11T03:34:35.604Z,10.80
2018-11-11T03:35:39.260Z,10.78
2018-11-11T03:36:43.373Z,10.76
2018-11-11T03:37:47.953Z,10.78
2018-11-11T03:38:50.689Z,10.75
2018-11-11T03:39:53.439Z,10.76
2018-11-11T03:40:57.083Z,10.77
2018-11-11T03:41:59.812Z,10.73
2018-11-11T03:43:02.573Z,10.77
2018-11-11T03:44:05.594Z,10.76
2018-11-11T03:45:08.389Z,10.76
2018-11-11T03:46:11.779Z,10.74
2018-11-11T03:47:15.227Z,10.74
2018-11-11T03:48:18.009Z,10.74
2018-11-11T03:49:20.768Z,10.75
2018-11-11T03:50:23.796Z,10.79
2018-11-11T03:51:26.626Z,10.81
2018-11-11T03:52:29.410Z,10.81
2018-11-11T03:53:32.261Z,10.83
2018-11-11T03:54:34.990Z,10.85
2018-11-11T03:55:38.408Z,10.86
2018-11-11T03:56:41.430Z,10.85
2018-11-11T03:57:44.196Z,10.86
2018-11-11T03:58:48.492Z,10.86
2018-11-11T03:59:51.245Z,10.89
2018-11-11T04:00:53.983Z,10.89
2018-11-11T04:01:56.760Z,10.88
2018-11-11T04:02:59.817Z,10.89
2018-11-11T04:04:02.568Z,10.89
2018-11-11T04:05:09.649Z,10.87
2018-11-11T04:06:12.377Z,10.86
2018-11-11T04:07:15.129Z,10.86
2018-11-11T04:08:18.056Z,10.89
2018-11-11T04:09:21.118Z,10.89
2018-11-11T04:10:23.917Z,10.86
2018-11-11T04:11:26.696Z,10.86
2018-11-11T04:12:29.432Z,10.86
2018-11-11T04:13:32.206Z,10.86
2018-11-11T04:14:34.937Z,10.88
2018-11-11T04:15:39.432Z,10.88
2018-11-11T04:16:42.183Z,10.88
2018-11-11T04:17:44.994Z,10.88
2018-11-11T04:18:47.751Z,10.87
2018-11-11T04:19:50.742Z,10.87
2018-11-11T04:20:53.466Z,10.90
2018-11-11T04:21:56.494Z,10.89
2018-11-11T04:22:59.260Z,10.88
2018-11-11T04:24:01.977Z,10.87
2018-11-11T04:25:04.844Z,10.86
2018-11-11T04:26:07.552Z,10.87
2018-11-11T04:27:12.564Z,10.89
2018-11-11T04:28:15.401Z,10.90
2018-11-11T04:29:18.190Z,10.91
2018-11-11T04:30:21.475Z,10.94
2018-11-11T04:31:24.263Z,10.90
2018-11-11T04:32:27.946Z,10.89
2018-11-11T04:33:30.680Z,10.84
2018-11-11T04:34:33.699Z,10.85
2018-11-11T04:35:36.448Z,10.87
2018-11-11T04:36:39.173Z,10.87
2018-11-11T04:37:41.943Z,10.86
2018-11-11T04:38:44.684Z,10.83
2018-11-11T04:39:47.441Z,10.84
2018-11-11T04:40:55.480Z,10.84
2018-11-11T04:41:58.233Z,10.87
2018-11-11T04:43:01.253Z,10.97
2018-11-11T04:44:03.999Z,10.96
2018-11-11T04:45:06.731Z,10.93
2018-11-11T04:46:09.535Z,10.94
2018-11-11T04:47:12.557Z,10.92
2018-11-11T04:48:15.295Z,10.91
2018-11-11T04:49:18.039Z,10.88
2018-11-11T04:50:20.780Z,10.87
2018-11-11T04:51:23.539Z,10.87
2018-11-11T04:52:27.155Z,10.87
2018-11-11T04:53:32.676Z,10.90
2018-11-11T04:54:35.421Z,10.90
2018-11-11T04:55:38.152Z,10.91
2018-11-11T04:56:40.906Z,10.93
2018-11-11T04:57:44.472Z,10.94
2018-11-11T04:58:47.226Z,10.94
2018-11-11T04:59:50.262Z,10.93
2018-11-11T05:00:53.031Z,10.93
2018-11-11T05:01:55.782Z,10.94
2018-11-11T05:02:58.545Z,10.92
2018-11-11T05:04:02.890Z,10.90
2018-11-11T05:05:05.760Z,10.94
2018-11-11T05:06:08.993Z,10.94
2018-11-11T05:07:11.701Z,10.94
2018-11-11T05:08:14.405Z,10.95
2018-11-11T05:09:21.667Z,10.94
2018-11-11T05:10:24.442Z,10.96
2018-11-11T05:11:27.156Z,10.96
2018-11-11T05:12:30.213Z,10.99
2018-11-11T05:13:32.945Z,10.98
2018-11-11T05:14:35.675Z,11.01
2018-11-11T05:15:38.402Z,10.98
2018-11-11T05:16:42.693Z,10.97
2018-11-11T05:17:45.462Z,10.94
2018-11-11T05:18:48.477Z,10.96
2018-11-11T05:19:51.224Z,10.99
2018-11-11T05:20:53.953Z,11.03
2018-11-11T05:21:56.738Z,11.01
2018-11-11T05:22:59.454Z,11.02
2018-11-11T05:24:02.191Z,11.00
2018-11-11T05:25:05.220Z,10.98
2018-11-11T05:26:07.946Z,10.98
2018-11-11T05:27:10.670Z,10.98
2018-11-11T05:28:13.406Z,10.98
2018-11-11T05:29:16.143Z,11.00
2018-11-11T05:30:18.901Z,11.03
2018-11-11T05:31:21.918Z,11.02
2018-11-11T05:32:24.648Z,11.01
2018-11-11T05:33:27.408Z,11.01
2018-11-11T05:34:30.885Z,11.04
2018-11-11T05:35:33.870Z,11.04
2018-11-11T05:36:36.655Z,11.01
2018-11-11T05:37:40.660Z,11.01
2018-11-11T05:38:43.415Z,11.00
2018-11-11T05:39:47.993Z,10.98
2018-11-11T05:40:51.174Z,10.99
2018-11-11T05:41:53.925Z,10.98
2018-11-11T05:42:56.658Z,10.98
2018-11-11T05:43:59.685Z,11.00
2018-11-11T05:45:02.490Z,11.01
2018-11-11T05:46:05.229Z,11.02
2018-11-11T05:47:08.126Z,11.07
2018-11-11T05:48:11.324Z,11.06
2018-11-11T05:49:14.180Z,11.04
2018-11-11T05:50:17.920Z,11.03
2018-11-11T05:51:20.669Z,11.04
2018-11-11T05:52:23.450Z,11.05
2018-11-11T05:53:26.163Z,11.07
2018-11-11T05:54:28.897Z,11.09
2018-11-11T05:55:31.637Z,11.10
2018-11-11T05:56:36.319Z,11.07
2018-11-11T05:57:39.390Z,11.09
2018-11-11T05:58:42.158Z,11.07
2018-11-11T05:59:44.963Z,11.12
2018-11-11T06:00:47.714Z,11.10
2018-11-11T06:01:51.354Z,11.04
2018-11-11T06:02:55.046Z,11.04
2018-11-11T06:03:57.811Z,11.06
2018-11-11T06:05:00.561Z,11.02
2018-11-11T06:06:03.304Z,11.02
2018-11-11T06:07:06.452Z,11.05
2018-11-11T06:08:10.412Z,11.05
2018-11-11T06:09:13.438Z,11.03
2018-11-11T06:10:16.654Z,11.05
2018-11-11T06:11:19.392Z,11.04
2018-11-11T06:12:22.155Z,11.08
2018-11-11T06:13:25.474Z,11.06
2018-11-11T06:14:28.192Z,11.05
2018-11-11T06:15:31.242Z,11.04
2018-11-11T06:16:34.023Z,11.02
2018-11-11T06:17:37.334Z,11.03
2018-11-11T06:18:40.126Z,11.07
2018-11-11T06:19:43.226Z,11.03
2018-11-11T06:20:45.953Z,11.03
2018-11-11T06:21:49.022Z,11.08
2018-11-11T06:22:51.772Z,11.07
2018-11-11T06:23:55.026Z,11.09
2018-11-11T06:24:57.817Z,11.11
2018-11-11T06:26:00.679Z,11.08
2018-11-11T06:27:03.999Z,11.09
2018-11-11T06:28:07.482Z,11.11
2018-11-11T06:29:11.262Z,11.11
2018-11-11T06:30:17.297Z,11.11
2018-11-11T06:31:20.045Z,11.09
2018-11-11T06:46:06.281Z,11.19
2018-11-11T06:47:09.580Z,11.18
2018-11-11T06:48:12.530Z,11.19
2018-11-11T06:49:18.984Z,11.19
2018-11-11T06:50:21.992Z,11.22
2018-11-11T06:51:27.661Z,11.20
2018-11-11T06:52:30.375Z,11.26
2018-11-11T06:53:33.096Z,11.28
2018-11-11T06:54:42.270Z,11.25
2018-11-11T06:55:48.897Z,11.29
2018-11-11T06:56:51.692Z,11.35
2018-11-11T06:57:54.730Z,11.32
2018-11-11T06:58:57.521Z,11.28
2018-11-11T07:00:01.944Z,11.24
2018-11-11T07:01:05.474Z,11.28
2018-11-11T07:02:08.252Z,11.27
2018-11-11T07:03:10.970Z,11.27
2018-11-11T07:04:14.649Z,11.25
2018-11-11T07:05:17.401Z,11.28
2018-11-11T07:06:20.103Z,11.32
2018-11-11T07:07:24.052Z,11.33
2018-11-11T07:08:27.241Z,11.32
2018-11-11T07:09:29.973Z,11.28
2018-11-11T07:10:33.161Z,11.29
2018-11-11T07:11:35.909Z,11.27
2018-11-11T07:12:38.666Z,11.25
2018-11-11T07:13:41.439Z,11.25
2018-11-11T07:14:44.664Z,11.23
2018-11-11T07:15:47.429Z,11.31
2018-11-11T07:16:52.243Z,11.32
2018-11-11T07:17:55.025Z,11.30
2018-11-11T07:18:57.747Z,11.30
2018-11-11T07:20:00.485Z,11.30
2018-11-11T07:21:03.229Z,11.29
2018-11-11T07:22:06.003Z,11.26
2018-11-11T07:23:09.039Z,11.24
2018-11-11T07:24:13.276Z,11.24
2018-11-11T07:25:16.086Z,11.25
2018-11-11T07:26:18.848Z,11.30
2018-11-11T07:27:22.847Z,11.32
2018-11-11T07:28:26.495Z,11.30
2018-11-11T07:29:29.770Z,11.29
2018-11-11T07:30:33.952Z,11.28
2018-11-11T07:31:36.703Z,11.26
2018-11-11T07:32:39.413Z,11.25
2018-11-11T07:33:42.356Z,11.25
2018-11-11T07:34:46.519Z,11.27
2018-11-11T07:35:52.601Z,11.28
2018-11-11T07:36:55.892Z,11.28
2018-11-11T07:38:03.259Z,11.28
2018-11-11T07:40:23.740Z,11.35
2018-11-11T07:41:30.440Z,11.35
2018-11-11T07:42:33.551Z,11.34
2018-11-11T07:43:39.709Z,11.35
2018-11-11T07:44:44.687Z,11.34
2018-11-11T07:45:48.448Z,11.32
2018-11-11T07:46:51.179Z,11.40
2018-11-11T07:47:54.022Z,11.39
2018-11-11T07:48:57.145Z,11.39
2018-11-11T07:50:00.287Z,11.38
2018-11-11T07:51:03.471Z,11.34
2018-11-11T07:52:06.273Z,11.35
2018-11-11T07:53:09.805Z,11.35
2018-11-11T07:54:12.697Z,11.39
2018-11-11T07:55:16.212Z,11.38
2018-11-11T07:56:19.716Z,11.37
2018-11-11T07:57:22.526Z,11.37
2018-11-11T07:58:26.204Z,11.39
2018-11-11T07:59:28.950Z,11.40
2018-11-11T08:00:31.680Z,11.34
2018-11-11T08:01:35.594Z,11.32
2018-11-11T08:02:38.314Z,11.34
2018-11-11T08:03:41.241Z,11.37
2018-11-11T08:04:43.975Z,11.38
2018-11-11T08:05:47.030Z,11.36
2018-11-11T08:06:49.773Z,11.35
2018-11-11T08:07:52.839Z,11.36
2018-11-11T08:08:55.584Z,11.37
2018-11-11T08:09:58.309Z,11.35
2018-11-11T08:11:01.081Z,11.36
2018-11-11T08:12:05.072Z,11.40
2018-11-11T08:13:09.596Z,11.38
2018-11-11T08:14:12.633Z,11.35
2018-11-11T08:15:16.080Z,11.39
2018-11-11T08:16:19.779Z,11.38
2018-11-11T08:17:22.758Z,11.36
2018-11-11T08:18:26.551Z,11.35
2018-11-11T08:19:29.501Z,11.37
2018-11-11T08:20:36.779Z,11.34
2018-11-11T08:21:40.732Z,11.34
2018-11-11T08:22:45.937Z,11.35
2018-11-11T08:23:49.659Z,11.34
2018-11-11T08:24:52.393Z,11.33
2018-11-11T08:25:55.207Z,11.35
2018-11-11T08:26:58.712Z,11.35
2018-11-11T08:28:02.394Z,11.34
2018-11-11T08:29:05.665Z,11.33
2018-11-11T08:30:08.610Z,11.34
2018-11-11T08:31:12.609Z,11.33
2018-11-11T08:32:15.974Z,11.35
2018-11-11T08:33:19.510Z,11.34
2018-11-11T08:34:26.440Z,11.34
2018-11-11T08:35:29.940Z,11.33
2018-11-11T08:36:32.905Z,11.34
2018-11-11T08:37:35.710Z,11.35
2018-11-11T08:38:38.456Z,11.36
2018-11-11T08:39:41.679Z,11.37
2018-11-11T08:40:44.768Z,11.39
2018-11-11T08:41:47.819Z,11.39
2018-11-11T08:42:50.572Z,11.38
2018-11-11T08:43:55.440Z,11.42
2018-11-11T08:44:59.333Z,11.44
2018-11-11T08:46:04.145Z,11.43
2018-11-11T08:47:07.275Z,11.43
2018-11-11T08:48:10.792Z,11.41
2018-11-11T08:49:14.663Z,11.40
2018-11-11T08:50:18.603Z,11.40
2018-11-11T08:51:22.202Z,11.41
2018-11-11T08:52:26.638Z,11.43
2018-11-11T08:53:31.693Z,11.44
2018-11-11T08:54:35.718Z,11.44
2018-11-11T08:55:39.832Z,11.45
2018-11-11T08:56:42.681Z,11.46
2018-11-11T08:57:45.449Z,11.45
2018-11-11T08:58:48.565Z,11.48
2018-11-11T08:59:53.478Z,11.48
2018-11-11T09:00:58.950Z,11.49
2018-11-11T09:02:02.397Z,11.48
2018-11-11T09:03:06.199Z,11.48
2018-11-11T09:04:09.125Z,11.50
2018-11-11T09:05:15.726Z,11.50
2018-11-11T09:06:24.392Z,11.53
2018-11-11T09:07:28.230Z,11.54
2018-11-11T09:08:30.948Z,11.56
2018-11-11T09:09:34.445Z,11.60
2018-11-11T09:10:37.173Z,11.62
2018-11-11T09:11:40.360Z,11.65
2018-11-11T09:12:43.249Z,11.67
2018-11-11T09:13:47.616Z,11.66
2018-11-11T09:14:51.628Z,11.64
2018-11-11T09:15:54.768Z,11.67
2018-11-11T09:16:58.067Z,11.67
2018-11-11T09:18:01.122Z,11.69
2018-11-11T09:19:04.855Z,11.69
2018-11-11T09:20:11.092Z,11.69
2018-11-11T09:21:14.752Z,11.68
2018-11-11T09:22:17.532Z,11.67
2018-11-11T09:23:20.431Z,11.68
2018-11-11T09:24:23.752Z,11.66
2018-11-11T09:25:27.998Z,11.68
2018-11-11T09:26:31.463Z,11.69
2018-11-11T09:27:34.622Z,11.72
2018-11-11T09:28:37.869Z,11.77
2018-11-11T09:29:43.996Z,11.86
2018-11-11T09:30:47.746Z,12.03
2018-11-11T09:31:50.936Z,12.10
2018-11-11T09:32:54.493Z,12.11
2018-11-11T09:33:57.238Z,12.56
2018-11-11T09:35:00.056Z,13.00
2018-11-11T09:36:03.144Z,13.14
2018-11-11T09:37:07.933Z,13.22
2018-11-11T09:38:11.304Z,13.46
2018-11-11T09:39:14.126Z,13.65
2018-11-11T09:40:17.860Z,13.70
2018-11-11T09:41:20.637Z,13.96
2018-11-11T09:42:24.939Z,14.17
2018-11-11T09:43:29.348Z,14.13
2018-11-11T09:44:34.631Z,13.98
2018-11-11T09:45:37.401Z,13.20
2018-11-11T09:46:47.331Z,13.27
2018-11-11T09:47:51.342Z,13.62
2018-11-11T09:48:54.470Z,13.39
2018-11-11T09:49:57.751Z,13.17
2018-11-11T09:51:00.525Z,12.92
2018-11-11T09:52:07.972Z,12.66
2018-11-11T09:53:12.022Z,12.57
2018-11-11T09:54:15.103Z,12.47
2018-11-11T09:55:18.262Z,12.38
2018-11-11T09:56:21.262Z,12.36
2018-11-11T09:57:24.644Z,12.18
2018-11-11T09:58:29.471Z,12.27
2018-11-11T09:59:33.139Z,12.31
2018-11-11T10:00:36.487Z,12.38
2018-11-11T10:01:39.438Z,12.37
2018-11-11T10:02:43.381Z,12.54
2018-11-11T10:03:53.515Z,12.59
2018-11-11T10:05:05.982Z,12.67
2018-11-11T10:10:29.942Z,12.76
2018-11-11T10:11:42.631Z,13.42
2018-11-11T10:12:50.609Z,13.30
2018-11-11T10:16:04.604Z,13.09
2018-11-11T10:18:14.427Z,13.07
2018-11-11T10:19:23.007Z,12.67
2018-11-11T10:20:39.216Z,12.62
2018-11-11T10:21:49.837Z,12.53
2018-11-11T10:23:00.016Z,12.54
2018-11-11T10:24:09.649Z,12.52
2018-11-11T10:25:19.666Z,12.52
2018-11-11T10:26:33.589Z,12.49
2018-11-11T10:28:51.124Z,12.48
2018-11-11T10:31:00.245Z,12.45
2018-11-11T10:32:13.847Z,12.47
2018-11-11T10:33:21.099Z,12.45
2018-11-11T10:34:29.316Z,12.47
2018-11-11T10:35:37.457Z,12.48
2018-11-11T10:37:47.781Z,12.47
2018-11-11T10:39:13.588Z,12.49
2018-11-11T10:40:34.041Z,12.45
2018-11-11T10:41:42.811Z,12.44
2018-11-11T10:42:50.516Z,12.43
2018-11-11T10:44:01.386Z,12.42
2018-11-11T10:45:07.604Z,12.39
2018-11-11T10:46:19.663Z,12.40
2018-11-11T10:47:29.920Z,12.40
2018-11-11T10:48:36.057Z,12.41
2018-11-11T10:49:47.607Z,12.40
2018-11-11T10:51:01.656Z,12.39
2018-11-11T10:52:05.280Z,12.39
2018-11-11T10:53:11.571Z,12.40
2018-11-11T10:54:15.353Z,12.38
2018-11-11T10:55:21.528Z,12.38
2018-11-11T10:56:25.456Z,12.39
2018-11-11T10:57:29.042Z,12.41
2018-11-11T10:58:32.228Z,12.42
2018-11-11T10:59:38.481Z,12.44
2018-11-11T11:00:46.331Z,12.45
2018-11-11T11:01:55.299Z,12.42
2018-11-11T11:03:01.573Z,12.44
2018-11-11T11:04:04.649Z,12.41
2018-11-11T11:05:12.243Z,12.40
2018-11-11T11:06:19.819Z,12.41
2018-11-11T11:07:22.578Z,12.42
2018-11-11T11:08:26.623Z,12.41
2018-11-11T11:09:31.380Z,12.41
2018-11-11T11:10:34.296Z,12.39
2018-11-11T11:11:38.787Z,12.38
2018-11-11T11:12:43.279Z,12.40
2018-11-11T11:13:46.520Z,12.38
2018-11-11T11:14:49.320Z,12.37
2018-11-11T11:15:53.868Z,12.38
2018-11-11T11:16:57.073Z,12.36
2018-11-11T11:18:05.312Z,12.37
2018-11-11T11:20:17.339Z,12.37
2018-11-11T11:21:20.771Z,12.37
2018-11-11T11:22:23.649Z,12.41
2018-11-11T11:23:27.982Z,12.40
2018-11-11T11:24:31.751Z,12.40
2018-11-11T11:25:35.102Z,12.42
2018-11-11T11:26:38.691Z,12.41
2018-11-11T11:27:42.498Z,12.40
2018-11-11T11:28:49.765Z,12.41
2018-11-11T11:29:53.565Z,12.42
2018-11-11T11:30:57.265Z,12.41
2018-11-11T11:32:02.057Z,12.41
2018-11-11T11:45:28.783Z,12.50
2018-11-11T11:46:32.378Z,12.51
2018-11-11T11:47:36.276Z,12.50
2018-11-11T11:48:42.298Z,12.50
2018-11-11T11:49:47.808Z,12.53
2018-11-11T11:50:52.133Z,12.51
2018-11-11T11:51:55.910Z,12.52
2018-11-11T11:52:59.019Z,12.55
2018-11-11T11:54:02.608Z,12.55
2018-11-11T11:55:06.974Z,12.57
2018-11-11T11:56:10.552Z,12.59
2018-11-11T11:57:13.784Z,12.59
2018-11-11T11:58:23.148Z,12.61
2018-11-11T11:59:27.275Z,12.61
2018-11-11T12:00:30.809Z,12.63
2018-11-11T12:01:35.688Z,12.63
2018-11-11T12:02:39.337Z,12.62
2018-11-11T12:03:42.169Z,12.63
2018-11-11T12:04:46.189Z,12.64
2018-11-11T12:05:49.984Z,12.61
2018-11-11T12:06:53.877Z,12.61
2018-11-11T12:08:00.130Z,12.59
2018-11-11T12:09:04.583Z,12.62
2018-11-11T12:10:08.394Z,12.60
2018-11-11T12:11:11.334Z,12.61
2018-11-11T12:12:15.636Z,12.62
2018-11-11T12:13:20.802Z,12.62
2018-11-11T12:14:24.826Z,12.62
2018-11-11T12:15:29.132Z,12.63
2018-11-11T12:16:35.860Z,12.63
2018-11-11T12:17:39.324Z,12.63
2018-11-11T12:18:42.869Z,12.64
2018-11-11T12:20:52.609Z,12.65
2018-11-11T12:21:56.126Z,12.69
2018-11-11T12:22:59.730Z,12.71
2018-11-11T12:24:04.618Z,12.74
2018-11-11T12:26:14.430Z,12.75
2018-11-11T12:27:18.646Z,12.76
2018-11-11T12:28:22.288Z,12.75
2018-11-11T12:29:26.014Z,12.79
2018-11-11T12:30:29.024Z,12.78
2018-11-11T12:31:33.167Z,12.79
2018-11-11T12:32:37.207Z,12.80
2018-11-11T12:33:40.706Z,12.79
2018-11-11T12:34:45.010Z,12.79
2018-11-11T12:35:48.589Z,12.81
2018-11-11T12:36:54.116Z,12.83
2018-11-11T12:38:01.307Z,12.82
2018-11-11T12:39:05.407Z,12.83
2018-11-11T12:40:08.642Z,12.91
2018-11-11T12:41:16.770Z,12.96
2018-11-11T12:42:24.802Z,12.97
2018-11-11T12:43:31.520Z,12.96
2018-11-11T12:44:35.372Z,12.99
2018-11-11T12:45:38.163Z,13.03
2018-11-11T12:46:43.813Z,13.04
2018-11-11T12:47:47.997Z,13.04
2018-11-11T12:48:50.938Z,12.99
2018-11-11T12:49:54.405Z,12.97
2018-11-11T12:50:57.837Z,12.97
2018-11-11T12:52:05.529Z,12.97
2018-11-11T12:53:11.660Z,12.99
2018-11-11T12:54:14.473Z,12.96
2018-11-11T12:55:22.711Z,12.95
2018-11-11T12:56:26.651Z,12.93
2018-11-11T12:57:31.265Z,12.93
2018-11-11T12:58:34.731Z,12.91
2018-11-11T12:59:37.995Z,12.92
2018-11-11T13:00:41.999Z,12.91
2018-11-11T13:01:46.369Z,12.89
2018-11-11T13:02:55.695Z,12.92
2018-11-11T13:03:59.060Z,12.95
2018-11-11T13:05:02.671Z,12.95
2018-11-11T13:06:06.287Z,12.97
2018-11-11T13:07:09.675Z,12.97
2018-11-11T13:08:14.109Z,12.98
2018-11-11T13:09:22.918Z,13.00
2018-11-11T13:10:26.109Z,13.01
2018-11-11T13:11:28.880Z,13.00
2018-11-11T13:12:33.064Z,13.00
2018-11-11T13:13:36.701Z,13.00
2018-11-11T13:14:41.489Z,12.99
2018-11-11T13:15:44.323Z,12.99
2018-11-11T13:16:47.222Z,12.99
2018-11-11T13:17:52.480Z,13.00
2018-11-11T13:18:55.839Z,13.00
2018-11-11T13:20:00.112Z,12.98
2018-11-11T13:21:06.928Z,12.98
2018-11-11T13:22:10.674Z,12.98
2018-11-11T13:23:15.393Z,13.00
2018-11-11T13:24:18.857Z,13.03
2018-11-11T13:25:23.704Z,13.03
2018-11-11T13:26:26.881Z,13.01
2018-11-11T13:27:30.072Z,13.02
2018-11-11T13:28:36.006Z,13.03
2018-11-11T13:29:41.257Z,13.04
2018-11-11T13:30:49.490Z,13.03
2018-11-11T13:31:52.808Z,13.03
2018-11-11T13:32:59.557Z,13.03
2018-11-11T13:35:15.189Z,13.01
2018-11-11T13:36:18.440Z,13.02
2018-11-11T13:37:22.603Z,13.03
2018-11-11T13:38:25.898Z,13.02
2018-11-11T13:39:30.304Z,13.02
2018-11-11T13:40:33.744Z,13.00
2018-11-11T13:41:39.885Z,13.00
2018-11-11T13:42:44.423Z,12.98
2018-11-11T13:43:50.072Z,12.93
2018-11-11T13:44:53.224Z,12.93
2018-11-11T13:45:57.083Z,12.88
2018-11-11T13:47:02.757Z,12.83
2018-11-11T13:48:08.660Z,12.78
2018-11-11T13:49:16.437Z,12.76
2018-11-11T13:50:25.822Z,12.73
2018-11-11T13:51:29.639Z,12.70
2018-11-11T13:52:33.143Z,12.69
2018-11-11T13:53:36.450Z,12.70
2018-11-11T13:54:43.440Z,12.68
2018-11-11T13:55:48.522Z,12.68
2018-11-11T13:56:51.964Z,12.65
2018-11-11T13:57:56.404Z,12.62
2018-11-11T13:59:01.241Z,12.61
2018-11-11T14:00:04.852Z,12.54
2018-11-11T14:01:12.657Z,12.52
2018-11-11T14:02:21.304Z,12.56
2018-11-11T14:03:26.533Z,12.52
2018-11-11T14:04:29.355Z,12.48
2018-11-11T14:05:32.725Z,12.48
2018-11-11T14:06:35.731Z,12.44
2018-11-11T14:07:39.718Z,12.43
2018-11-11T14:08:43.114Z,12.49
2018-11-11T14:09:46.498Z,12.50
2018-11-11T14:10:57.537Z,12.50
2018-11-11T14:12:01.909Z,12.45
2018-11-11T14:13:05.456Z,12.40
2018-11-11T14:14:11.954Z,12.37
2018-11-11T14:15:17.036Z,12.33
2018-11-11T14:16:21.992Z,12.32
2018-11-11T14:17:24.844Z,12.31
2018-11-11T14:18:27.977Z,12.32
2018-11-11T14:19:32.296Z,12.37
2018-11-11T14:20:36.784Z,12.39
2018-11-11T14:21:40.075Z,12.33
2018-11-11T14:22:46.506Z,12.22
2018-11-11T14:23:50.048Z,12.19
2018-11-11T14:24:56.161Z,12.16
2018-11-11T14:25:59.922Z,12.18